aviador You're here:

LFTH Decoded Metar

HYERES in FRANCE
Report Time2017-12-11 22:30:00
UTC Time2017-12-11 22:56:25
Flight Rules vfr VFR
Wind310° at 04 kt
W.Decomp.*RWY 31: 4.0 kt HW 0.1 kt LCW
RWY 23: 0.8 kt HW 3.9 kt RCW
W.Rank310° ranks 3
Current wind is below 310° avg. (7.8)
Visibility9999 m
Phenomena:N/A
Clouds:N/A
Expected CloudBase > 1,200 ft AGL from Temp-Dew spread
CeilingNone
Temp08°C (ISA -7)
Dew Point05°C (82% RH)
AAT5.5°C
QNH1000 hPa
Density Alt-262 ft
Elevation13 ft
Report Wrong Elevation
Raw Report
LFTH 112230Z AUTO 31004KT CAVOK 08/05 Q1000 NOSIG=

Extra information for LFTH:More info

Metar Taf Metar & Taf Last 4 Metars F.Rules Stats Wind Profile Meteogram Temp Stats Airport Information Weather charts Add Link Nearby VenuesMetar ALERT Operation Metar Decoded Social comments